createdAt,value
2022-12-19T00:00:47.208Z,-12.31
2022-12-19T00:03:13.678Z,-12.30
2022-12-19T00:05:40.867Z,-12.33
2022-12-19T00:08:17.271Z,-12.38
2022-12-19T00:10:44.596Z,-12.39
2022-12-19T00:13:10.975Z,-12.47
2022-12-19T00:15:37.357Z,-12.46
2022-12-19T00:18:03.959Z,-12.57
2022-12-19T00:20:30.333Z,-12.68
2022-12-19T00:22:57.840Z,-12.76
2022-12-19T00:25:24.241Z,-12.73
2022-12-19T00:27:51.372Z,-12.71
2022-12-19T00:30:17.829Z,-12.71
2022-12-19T00:32:44.308Z,-12.69
2022-12-19T00:35:10.763Z,-12.68
2022-12-19T00:37:38.316Z,-12.72
2022-12-19T00:40:08.144Z,-12.71
2022-12-19T00:42:34.520Z,-12.75
2022-12-19T00:45:00.916Z,-12.77
2022-12-19T00:47:27.294Z,-12.77
2022-12-19T00:49:53.703Z,-12.74
2022-12-19T00:52:20.121Z,-12.76
2022-12-19T00:54:48.044Z,-12.77
2022-12-19T00:57:14.505Z,-12.77
2022-12-19T00:59:40.981Z,-12.75
2022-12-19T01:02:07.500Z,-12.79
2022-12-19T01:04:38.387Z,-12.78
2022-12-19T01:07:08.274Z,-12.79
2022-12-19T01:09:35.341Z,-12.87
2022-12-19T01:12:24.452Z,-12.92
2022-12-19T01:14:52.824Z,-12.89
2022-12-19T01:17:19.196Z,-12.89
2022-12-19T01:19:45.607Z,-12.94
2022-12-19T01:22:12.762Z,-13.00
2022-12-19T01:24:39.615Z,-12.91
2022-12-19T01:27:06.018Z,-12.89
2022-12-19T01:29:32.628Z,-12.98
2022-12-19T01:32:00.994Z,-13.04
2022-12-19T01:34:27.726Z,-13.07
2022-12-19T01:36:54.172Z,-13.15
2022-12-19T01:39:20.585Z,-13.18
2022-12-19T01:41:48.980Z,-13.16
2022-12-19T01:44:15.450Z,-13.14
2022-12-19T01:46:46.023Z,-13.08
2022-12-19T01:49:18.063Z,-13.16
2022-12-19T01:51:49.294Z,-13.35
2022-12-19T01:54:19.846Z,-13.46
2022-12-19T01:56:49.378Z,-13.47
2022-12-19T01:59:19.419Z,-13.47
2022-12-19T02:01:51.565Z,-13.51
2022-12-19T02:04:19.635Z,-13.60
2022-12-19T02:06:47.049Z,-13.60
2022-12-19T02:09:13.518Z,-13.64
2022-12-19T02:11:39.951Z,-13.53
2022-12-19T02:14:06.733Z,-13.43
2022-12-19T02:16:40.638Z,-13.38
2022-12-19T02:19:07.045Z,-13.37
2022-12-19T02:21:51.100Z,-13.42
2022-12-19T02:24:39.963Z,-13.62
2022-12-19T02:27:37.141Z,-13.63
2022-12-19T02:30:10.442Z,-13.56
2022-12-19T02:32:49.816Z,-13.58
2022-12-19T02:35:21.881Z,-13.57
2022-12-19T02:37:50.260Z,-13.62
2022-12-19T02:40:23.704Z,-13.65
2022-12-19T02:42:54.492Z,-13.72
2022-12-19T02:45:28.782Z,-13.69
2022-12-19T02:47:56.015Z,-13.70
2022-12-19T02:50:22.519Z,-13.66
2022-12-19T02:52:49.361Z,-13.74
2022-12-19T02:55:18.805Z,-13.68
2022-12-19T02:57:57.459Z,-13.67
2022-12-19T03:00:25.514Z,-13.60
2022-12-19T03:03:00.404Z,-13.68
2022-12-19T03:05:46.010Z,-13.70
2022-12-19T03:08:31.010Z,-13.72
2022-12-19T03:11:01.997Z,-13.72
2022-12-19T03:13:37.714Z,-13.70
2022-12-19T03:16:05.490Z,-13.77
2022-12-19T03:18:33.501Z,-13.78
2022-12-19T03:21:06.493Z,-13.78
2022-12-19T03:23:32.930Z,-13.78
2022-12-19T03:26:05.129Z,-13.87
2022-12-19T03:28:37.027Z,-13.98
2022-12-19T03:31:04.215Z,-13.97
2022-12-19T03:33:32.880Z,-13.90
2022-12-19T03:36:01.532Z,-13.80
2022-12-19T03:38:28.420Z,-13.76
2022-12-19T03:40:55.369Z,-13.74
2022-12-19T03:43:24.116Z,-13.79
2022-12-19T03:45:55.478Z,-13.78
2022-12-19T03:48:28.271Z,-13.80
2022-12-19T03:51:07.515Z,-13.83
2022-12-19T03:53:57.268Z,-13.84
2022-12-19T03:56:32.498Z,-13.74
2022-12-19T03:59:07.119Z,-13.71
2022-12-19T04:01:34.589Z,-13.81
2022-12-19T04:04:02.692Z,-13.84
2022-12-19T04:06:30.490Z,-13.76
2022-12-19T04:08:57.938Z,-13.75
2022-12-19T04:11:26.946Z,-13.69
2022-12-19T04:13:56.595Z,-13.72
2022-12-19T04:16:33.447Z,-13.80
2022-12-19T04:19:04.763Z,-13.77
2022-12-19T04:21:33.123Z,-13.69
2022-12-19T04:24:02.912Z,-13.81
2022-12-19T04:26:30.729Z,-13.69
2022-12-19T04:28:59.839Z,-13.63
2022-12-19T04:31:26.427Z,-13.61
2022-12-19T04:33:52.829Z,-13.63
2022-12-19T04:36:19.526Z,-13.59
2022-12-19T04:38:45.959Z,-13.60
2022-12-19T04:41:12.575Z,-13.62
2022-12-19T04:43:38.969Z,-13.55
2022-12-19T04:46:05.455Z,-13.50
2022-12-19T04:48:31.966Z,-13.41
2022-12-19T04:50:58.396Z,-13.33
2022-12-19T04:53:24.831Z,-13.28
2022-12-19T04:55:51.237Z,-13.27
2022-12-19T04:58:21.851Z,-13.27
2022-12-19T05:00:48.940Z,-13.22
2022-12-19T05:03:15.394Z,-13.16
2022-12-19T05:05:41.806Z,-13.15
2022-12-19T05:08:08.580Z,-13.17
2022-12-19T05:10:36.121Z,-13.29
2022-12-19T05:13:02.656Z,-13.33
2022-12-19T05:15:29.072Z,-13.31
2022-12-19T05:17:55.434Z,-13.21
2022-12-19T05:20:21.836Z,-13.22
2022-12-19T05:22:48.277Z,-13.16
2022-12-19T05:25:14.688Z,-13.19
2022-12-19T05:27:41.136Z,-13.21
2022-12-19T05:30:07.793Z,-13.14
2022-12-19T05:32:34.855Z,-13.13
2022-12-19T05:35:01.295Z,-13.11
2022-12-19T05:37:27.667Z,-13.12
2022-12-19T05:39:54.063Z,-13.19
2022-12-19T05:42:20.490Z,-13.15
2022-12-19T05:44:46.903Z,-13.08
2022-12-19T05:47:13.312Z,-13.03
2022-12-19T05:49:39.696Z,-12.99
2022-12-19T05:52:06.073Z,-13.03
2022-12-19T05:54:32.549Z,-12.98
2022-12-19T05:56:58.914Z,-13.02
2022-12-19T05:59:26.183Z,-13.03
2022-12-19T06:01:53.734Z,-12.98
2022-12-19T06:04:20.224Z,-12.99
2022-12-19T06:06:46.599Z,-12.99
2022-12-19T06:09:13.026Z,-13.03
2022-12-19T06:11:39.405Z,-13.04
2022-12-19T06:14:05.788Z,-13.00
2022-12-19T06:16:32.232Z,-13.02
2022-12-19T06:18:58.665Z,-12.98
2022-12-19T06:21:25.114Z,-12.97
2022-12-19T06:23:51.539Z,-12.94
2022-12-19T06:26:20.312Z,-12.90
2022-12-19T06:28:53.351Z,-12.89
2022-12-19T06:31:20.861Z,-12.95
2022-12-19T06:33:47.326Z,-12.98
2022-12-19T06:36:13.796Z,-12.99
2022-12-19T06:38:40.485Z,-12.95
2022-12-19T06:41:25.604Z,-12.93
2022-12-19T06:43:53.869Z,-12.98
2022-12-19T06:46:20.502Z,-13.01
2022-12-19T06:48:46.965Z,-13.03
2022-12-19T06:51:13.479Z,-13.08
2022-12-19T06:53:40.379Z,-13.04
2022-12-19T06:56:07.026Z,-13.02
2022-12-19T06:58:33.694Z,-12.97
2022-12-19T07:01:00.258Z,-12.96
2022-12-19T07:03:29.709Z,-12.93
2022-12-19T07:05:56.100Z,-12.93
2022-12-19T07:08:22.534Z,-12.88
2022-12-19T07:10:49.079Z,-12.86
2022-12-19T07:13:15.567Z,-12.92
2022-12-19T07:15:42.123Z,-12.97
2022-12-19T07:18:09.533Z,-12.96
2022-12-19T07:20:39.594Z,-12.96
2022-12-19T07:23:10.055Z,-12.94
2022-12-19T07:25:37.463Z,-12.86
2022-12-19T07:28:03.899Z,-12.86
2022-12-19T07:30:30.472Z,-12.87
2022-12-19T07:32:56.976Z,-12.91
2022-12-19T07:35:24.206Z,-12.95
2022-12-19T07:37:50.934Z,-13.03
2022-12-19T07:40:17.877Z,-13.03
2022-12-19T07:42:45.346Z,-13.02
2022-12-19T07:45:12.221Z,-12.98
2022-12-19T07:47:38.592Z,-13.00
2022-12-19T07:50:05.226Z,-13.05
2022-12-19T07:52:31.696Z,-13.09
2022-12-19T07:54:58.076Z,-13.09
2022-12-19T07:57:24.450Z,-13.12
2022-12-19T07:59:50.847Z,-13.17
2022-12-19T08:02:17.382Z,-13.16
2022-12-19T08:04:43.835Z,-13.11
2022-12-19T08:07:10.593Z,-13.12
2022-12-19T08:09:37.087Z,-13.10
2022-12-19T08:12:04.329Z,-13.04
2022-12-19T08:14:30.720Z,-12.98
2022-12-19T08:17:19.652Z,-12.98
2022-12-19T08:19:43.484Z,-13.01
2022-12-19T08:22:09.863Z,-13.04
2022-12-19T08:24:37.365Z,-12.94
2022-12-19T08:27:03.814Z,-12.91
2022-12-19T08:29:30.313Z,-12.92
2022-12-19T08:31:56.719Z,-12.88
2022-12-19T08:34:23.091Z,-12.86
2022-12-19T08:36:49.451Z,-12.87
2022-12-19T08:39:15.802Z,-12.92
2022-12-19T08:41:42.176Z,-12.95
2022-12-19T08:44:11.262Z,-12.93
2022-12-19T08:46:37.676Z,-12.90
2022-12-19T08:49:04.131Z,-12.97
2022-12-19T08:51:30.540Z,-13.01
2022-12-19T08:53:58.168Z,-12.94
2022-12-19T08:56:24.555Z,-12.87
2022-12-19T08:58:51.829Z,-12.80
2022-12-19T09:01:20.020Z,-12.78
2022-12-19T09:04:22.572Z,-12.75
2022-12-19T09:06:35.182Z,-12.77
2022-12-19T09:09:02.692Z,-12.69
2022-12-19T09:11:29.178Z,-12.67
2022-12-19T09:13:57.069Z,-12.65
2022-12-19T09:16:24.532Z,-12.60
2022-12-19T09:18:51.872Z,-12.59
2022-12-19T09:21:18.986Z,-12.52
2022-12-19T09:23:50.292Z,-12.45
2022-12-19T09:26:17.003Z,-12.32
2022-12-19T09:28:43.574Z,-12.27
2022-12-19T09:31:17.535Z,-12.25
2022-12-19T09:33:44.448Z,-12.15
2022-12-19T09:36:18.370Z,-12.10
2022-12-19T09:38:45.162Z,-12.01
2022-12-19T09:41:30.014Z,-11.95
2022-12-19T09:43:56.393Z,-11.89
2022-12-19T09:46:38.338Z,-11.77
2022-12-19T09:49:11.294Z,-11.63
2022-12-19T09:51:43.508Z,-11.53
2022-12-19T09:54:10.227Z,-11.40
2022-12-19T09:56:45.356Z,-11.26
2022-12-19T09:59:41.616Z,-11.12
2022-12-19T10:02:19.149Z,-11.04
2022-12-19T10:04:52.772Z,-11.00
2022-12-19T10:07:57.812Z,-10.91
2022-12-19T10:12:39.647Z,-10.84
2022-12-19T10:13:26.059Z,-10.75
2022-12-19T10:16:00.529Z,-10.64
2022-12-19T10:18:27.151Z,-10.55
2022-12-19T10:20:59.859Z,-10.46
2022-12-19T10:23:45.879Z,-10.40
2022-12-19T10:26:30.217Z,-10.32
2022-12-19T10:29:17.099Z,-10.26
2022-12-19T10:31:43.470Z,-10.17
2022-12-19T10:34:19.149Z,-10.08
2022-12-19T10:37:20.966Z,-10.00
2022-12-19T10:39:36.096Z,-9.89
2022-12-19T10:42:09.071Z,-9.70
2022-12-19T10:44:38.709Z,-9.59
2022-12-19T10:47:05.280Z,-9.33
2022-12-19T10:49:31.783Z,-9.17
2022-12-19T10:52:02.392Z,-8.86
2022-12-19T10:54:37.776Z,-8.76
2022-12-19T10:57:22.217Z,-8.73
2022-12-19T11:00:00.890Z,-8.66
2022-12-19T11:02:33.038Z,-8.43
2022-12-19T11:04:59.767Z,-8.34
2022-12-19T11:07:26.192Z,-8.33
2022-12-19T11:10:09.235Z,-8.25
2022-12-19T11:17:22.047Z,-8.15
2022-12-19T11:19:37.825Z,-8.09
2022-12-19T11:26:24.047Z,-8.04
2022-12-19T11:30:05.457Z,-7.87
2022-12-19T11:30:43.751Z,-7.53
2022-12-19T11:30:47.107Z,-7.68
2022-12-19T11:33:13.646Z,-7.04
2022-12-19T11:35:48.274Z,-6.91
2022-12-19T11:38:16.932Z,-6.78
2022-12-19T11:40:49.566Z,-6.68
2022-12-19T11:43:46.921Z,-6.60
2022-12-19T11:46:25.412Z,-6.42
2022-12-19T11:48:58.787Z,-6.29
2022-12-19T11:51:30.252Z,-6.15
2022-12-19T11:54:15.072Z,-6.04
2022-12-19T11:56:41.718Z,-5.96
2022-12-19T11:59:13.082Z,-5.87
2022-12-19T12:01:45.397Z,-5.78
2022-12-19T12:04:30.468Z,-5.72
2022-12-19T12:06:57.591Z,-5.64
2022-12-19T12:12:27.102Z,-5.59
2022-12-19T12:18:47.536Z,-5.52
2022-12-19T12:26:34.847Z,-5.45
2022-12-19T12:31:01.975Z,-5.41
2022-12-19T12:31:18.171Z,-5.37
2022-12-19T12:31:42.240Z,-5.33
2022-12-19T12:32:03.522Z,-5.29
2022-12-19T12:32:06.316Z,-5.33
2022-12-19T12:35:33.125Z,-5.25
2022-12-19T12:39:02.563Z,-5.17
2022-12-19T12:41:47.402Z,-5.17
2022-12-19T12:44:14.122Z,-5.22
2022-12-19T12:46:44.705Z,-5.23
2022-12-19T12:49:20.286Z,-5.25
2022-12-19T12:51:47.039Z,-5.21
2022-12-19T12:54:14.866Z,-5.19
2022-12-19T12:56:42.127Z,-5.15
2022-12-19T12:59:26.339Z,-5.13
2022-12-19T13:01:57.134Z,-5.09
2022-12-19T13:04:43.169Z,-5.11
2022-12-19T13:07:20.665Z,-5.11
2022-12-19T13:09:51.357Z,-5.09
2022-12-19T13:12:44.702Z,-5.05
2022-12-19T13:15:29.796Z,-4.97
2022-12-19T13:17:56.162Z,-5.02
2022-12-19T13:20:27.781Z,-5.03
2022-12-19T13:23:02.913Z,-5.04
2022-12-19T13:25:32.340Z,-5.05
2022-12-19T13:28:01.749Z,-5.00
2022-12-19T13:30:32.352Z,-4.96
2022-12-19T13:33:13.097Z,-4.87
2022-12-19T13:39:46.464Z,-4.88
2022-12-19T13:40:00.501Z,-4.86
2022-12-19T13:41:48.163Z,-4.85
2022-12-19T13:44:18.155Z,-4.89
2022-12-19T13:46:46.013Z,-4.87
2022-12-19T13:49:19.120Z,-4.89
2022-12-19T13:51:47.662Z,-4.92
2022-12-19T13:54:20.207Z,-4.93
2022-12-19T13:56:46.719Z,-4.96
2022-12-19T13:59:13.161Z,-5.05
2022-12-19T14:01:40.502Z,-5.07
2022-12-19T14:04:09.134Z,-5.10
2022-12-19T14:06:40.163Z,-5.12
2022-12-19T14:11:25.457Z,-5.18
2022-12-19T14:13:46.232Z,-5.24
2022-12-19T14:15:13.758Z,-5.27
2022-12-19T14:17:40.575Z,-5.31
2022-12-19T14:22:05.225Z,-5.34
2022-12-19T14:23:05.014Z,-5.37
2022-12-19T14:28:16.744Z,-5.34
2022-12-19T14:28:54.957Z,-5.40
2022-12-19T14:31:23.673Z,-5.50
2022-12-19T14:34:18.997Z,-5.55
2022-12-19T14:36:40.022Z,-5.59
2022-12-19T14:39:24.039Z,-5.67
2022-12-19T14:42:19.096Z,-5.71
2022-12-19T14:53:52.384Z,-5.88
2022-12-19T14:54:13.171Z,-5.80
2022-12-19T14:54:22.927Z,-6.00
2022-12-19T14:54:31.208Z,-6.02
2022-12-19T14:59:05.631Z,-6.03
2022-12-19T15:01:34.072Z,-6.09
2022-12-19T15:04:50.609Z,-6.20
2022-12-19T15:07:09.010Z,-6.19
2022-12-19T15:10:58.484Z,-6.16
2022-12-19T15:13:47.405Z,-6.20
2022-12-19T15:15:38.718Z,-6.21
2022-12-19T15:18:18.074Z,-6.25
2022-12-19T15:20:44.445Z,-6.26
2022-12-19T15:23:14.027Z,-6.27
2022-12-19T15:26:03.330Z,-6.32
2022-12-19T15:28:43.204Z,-6.37
2022-12-19T15:31:15.677Z,-6.33
2022-12-19T15:34:06.807Z,-6.38
2022-12-19T15:36:28.521Z,-6.37
2022-12-19T15:38:54.917Z,-6.38
2022-12-19T15:41:22.808Z,-6.45
2022-12-19T15:44:07.020Z,-6.48
2022-12-19T15:46:33.775Z,-6.47
2022-12-19T15:49:01.024Z,-6.51
2022-12-19T15:51:27.427Z,-6.55
2022-12-19T15:53:56.933Z,-6.55
2022-12-19T15:56:32.666Z,-6.60
2022-12-19T15:59:00.605Z,-6.65
2022-12-19T16:01:27.711Z,-6.64
2022-12-19T16:03:56.513Z,-6.67
2022-12-19T16:06:23.121Z,-6.68
2022-12-19T16:08:49.557Z,-6.72
2022-12-19T16:11:20.653Z,-6.75
2022-12-19T16:13:50.604Z,-6.76
2022-12-19T16:16:17.248Z,-6.77
2022-12-19T16:18:44.593Z,-6.80
2022-12-19T16:21:18.271Z,-6.83
2022-12-19T16:23:44.860Z,-6.85
2022-12-19T16:26:30.314Z,-6.87
2022-12-19T16:28:57.028Z,-6.94
2022-12-19T16:31:24.796Z,-6.94
2022-12-19T16:33:51.228Z,-6.98
2022-12-19T16:36:17.631Z,-7.04
2022-12-19T16:38:44.037Z,-7.08
2022-12-19T16:41:15.850Z,-7.08
2022-12-19T16:43:43.676Z,-7.12
2022-12-19T16:46:15.666Z,-7.14
2022-12-19T16:48:42.059Z,-7.13
2022-12-19T16:51:16.377Z,-7.13
2022-12-19T16:53:42.740Z,-7.07
2022-12-19T16:56:16.464Z,-7.01
2022-12-19T16:58:43.388Z,-6.97
2022-12-19T17:01:10.467Z,-6.97
2022-12-19T17:03:42.013Z,-6.97
2022-12-19T17:06:12.796Z,-6.91
2022-12-19T17:08:39.422Z,-6.88
2022-12-19T17:11:07.960Z,-6.84
2022-12-19T17:13:34.594Z,-6.82
2022-12-19T17:16:01.213Z,-6.76
2022-12-19T17:18:31.592Z,-6.76
2022-12-19T17:20:58.032Z,-6.74
2022-12-19T17:23:25.106Z,-6.74
2022-12-19T17:25:51.807Z,-6.74
2022-12-19T17:28:18.229Z,-6.77
2022-12-19T17:30:48.793Z,-6.77
2022-12-19T17:33:16.007Z,-6.78
2022-12-19T17:35:42.927Z,-6.82
2022-12-19T17:38:12.098Z,-6.88
2022-12-19T17:40:38.831Z,-6.93
2022-12-19T17:43:05.320Z,-6.97
2022-12-19T17:45:33.263Z,-7.04
2022-12-19T17:48:05.520Z,-7.10
2022-12-19T17:50:37.424Z,-7.08
2022-12-19T17:53:04.002Z,-7.07
2022-12-19T17:55:30.797Z,-7.04
2022-12-19T17:57:57.717Z,-7.04
2022-12-19T18:00:30.414Z,-7.03
2022-12-19T18:02:59.484Z,-7.00
2022-12-19T18:05:27.493Z,-6.99
2022-12-19T18:07:54.127Z,-6.97
2022-12-19T18:10:24.618Z,-6.96
2022-12-19T18:12:51.590Z,-6.94
2022-12-19T18:15:18.379Z,-6.92
2022-12-19T18:17:45.413Z,-6.94
2022-12-19T18:20:19.634Z,-6.92
2022-12-19T18:22:46.621Z,-6.91
2022-12-19T18:25:17.473Z,-6.90
2022-12-19T18:27:43.997Z,-6.88
2022-12-19T18:30:14.646Z,-6.87
2022-12-19T18:32:42.309Z,-6.80
2022-12-19T18:35:13.962Z,-6.70
2022-12-19T18:37:40.420Z,-6.59
2022-12-19T18:40:33.034Z,-6.50
2022-12-19T18:43:00.191Z,-6.46
2022-12-19T18:45:30.781Z,-6.38
2022-12-19T18:47:59.308Z,-6.31
2022-12-19T18:50:26.452Z,-6.22
2022-12-19T18:52:53.418Z,-6.12
2022-12-19T18:55:24.220Z,-6.06
2022-12-19T18:57:50.764Z,-5.95
2022-12-19T19:00:18.338Z,-5.92
2022-12-19T19:03:02.466Z,-5.84
2022-12-19T19:05:30.235Z,-5.80
2022-12-19T19:07:57.982Z,-5.81
2022-12-19T19:10:25.730Z,-5.74
2022-12-19T19:12:52.243Z,-5.69
2022-12-19T19:15:19.478Z,-5.69
2022-12-19T19:17:47.481Z,-5.67
2022-12-19T19:20:14.099Z,-5.63
2022-12-19T19:22:40.484Z,-5.57
2022-12-19T19:25:07.158Z,-5.54
2022-12-19T19:27:33.782Z,-5.49
2022-12-19T19:30:00.207Z,-5.45
2022-12-19T19:32:26.840Z,-5.41
2022-12-19T19:34:53.325Z,-5.37
2022-12-19T19:37:19.758Z,-5.38
2022-12-19T19:39:46.135Z,-5.38
2022-12-19T19:42:12.579Z,-5.28
2022-12-19T19:44:39.301Z,-5.19
2022-12-19T19:47:05.737Z,-5.18
2022-12-19T19:49:32.211Z,-5.18
2022-12-19T19:52:02.572Z,-5.20
2022-12-19T19:54:29.943Z,-5.20
2022-12-19T19:56:56.384Z,-5.23
2022-12-19T19:59:22.779Z,-5.18
2022-12-19T20:01:54.176Z,-5.21
2022-12-19T20:04:20.961Z,-5.16
2022-12-19T20:06:47.409Z,-5.13
2022-12-19T20:09:13.867Z,-5.10
2022-12-19T20:11:40.253Z,-5.07
2022-12-19T20:14:06.712Z,-5.04
2022-12-19T20:16:33.690Z,-4.99
2022-12-19T20:19:00.137Z,-4.95
2022-12-19T20:21:26.661Z,-4.89
2022-12-19T20:23:53.522Z,-4.85
2022-12-19T20:26:20.237Z,-4.81
2022-12-19T20:28:49.579Z,-4.81
2022-12-19T20:31:20.688Z,-4.75
2022-12-19T20:33:48.406Z,-4.67
2022-12-19T20:36:15.505Z,-4.63
2022-12-19T20:38:42.189Z,-4.57
2022-12-19T20:41:08.732Z,-4.53
2022-12-19T20:43:35.635Z,-4.49
2022-12-19T20:46:06.559Z,-4.39
2022-12-19T20:48:33.097Z,-4.33
2022-12-19T20:51:00.218Z,-4.27
2022-12-19T20:53:27.114Z,-4.22
2022-12-19T20:55:57.825Z,-4.20
2022-12-19T20:58:25.267Z,-4.21
2022-12-19T21:00:54.653Z,-4.16
2022-12-19T21:03:29.833Z,-4.14
2022-12-19T21:05:57.240Z,-4.08
2022-12-19T21:08:24.242Z,-4.07
2022-12-19T21:10:50.721Z,-4.03
2022-12-19T21:13:17.483Z,-3.95
2022-12-19T21:15:43.931Z,-3.91
2022-12-19T21:18:10.565Z,-3.86
2022-12-19T21:20:38.150Z,-3.81
2022-12-19T21:23:04.858Z,-3.78
2022-12-19T21:25:31.247Z,-3.73
2022-12-19T21:27:58.311Z,-3.69
2022-12-19T21:30:25.024Z,-3.64
2022-12-19T21:32:51.455Z,-3.62
2022-12-19T21:35:17.898Z,-3.59
2022-12-19T21:37:50.036Z,-3.56
2022-12-19T21:40:16.899Z,-3.52
2022-12-19T21:42:43.360Z,-3.47
2022-12-19T21:45:10.082Z,-3.45
2022-12-19T21:47:39.356Z,-3.43
2022-12-19T21:50:07.151Z,-3.41
2022-12-19T21:52:33.540Z,-3.40
2022-12-19T21:54:59.944Z,-3.39
2022-12-19T21:57:26.352Z,-3.31
2022-12-19T21:59:52.768Z,-3.26
2022-12-19T22:02:19.349Z,-3.24
2022-12-19T22:04:45.807Z,-3.21
2022-12-19T22:07:12.209Z,-3.17
2022-12-19T22:09:38.623Z,-3.16
2022-12-19T22:12:05.078Z,-3.12
2022-12-19T22:14:31.455Z,-3.07
2022-12-19T22:16:58.551Z,-3.04
2022-12-19T22:19:25.040Z,-2.99
2022-12-19T22:21:51.475Z,-2.93
2022-12-19T22:24:17.963Z,-2.88
2022-12-19T22:26:45.094Z,-2.85
2022-12-19T22:29:13.787Z,-2.80
2022-12-19T22:31:40.821Z,-2.75
2022-12-19T22:34:11.054Z,-2.73
2022-12-19T22:36:38.802Z,-2.71
2022-12-19T22:39:07.391Z,-2.64
2022-12-19T22:41:34.435Z,-2.61
2022-12-19T22:44:00.871Z,-2.58
2022-12-19T22:46:29.139Z,-2.51
2022-12-19T22:48:56.867Z,-2.48
2022-12-19T22:51:23.317Z,-2.43
2022-12-19T22:53:49.905Z,-2.42
2022-12-19T22:56:20.860Z,-2.40
2022-12-19T22:58:48.756Z,-2.30
2022-12-19T23:01:19.699Z,-2.29
2022-12-19T23:03:47.957Z,-2.27
2022-12-19T23:06:15.075Z,-2.26
2022-12-19T23:08:41.641Z,-2.24
2022-12-19T23:11:09.619Z,-2.21
2022-12-19T23:13:36.007Z,-2.23
2022-12-19T23:16:02.447Z,-2.17
2022-12-19T23:18:29.041Z,-2.16
2022-12-19T23:21:09.255Z,-2.14
2022-12-19T23:23:39.395Z,-2.14
2022-12-19T23:26:11.296Z,-2.09
2022-12-19T23:28:42.508Z,-2.09
2022-12-19T23:31:10.121Z,-2.05
2022-12-19T23:33:36.922Z,-2.02
2022-12-19T23:36:04.642Z,-2.01
2022-12-19T23:38:31.266Z,-1.95
2022-12-19T23:41:02.030Z,-1.93
2022-12-19T23:43:29.116Z,-1.88
2022-12-19T23:45:55.740Z,-1.88
2022-12-19T23:48:25.529Z,-1.85
2022-12-19T23:51:02.043Z,-1.83
2022-12-19T23:53:28.965Z,-1.81
2022-12-19T23:55:55.413Z,-1.81
2022-12-19T23:58:24.595Z,-1.77
